Time;durP1;ratioP1;P1;durP2;ratioP2;P2;SDS_P1;SDS_P2;PMS_P1;PMS_P2;Temp;Humidity;BMP_temperature;BMP_pressure;BME280_temperature;BME280_humidity;BME280_pressure;Samples;Min_cycle;Max_cycle;Signal;HPM_P1;HPM_P2
2023/01/06 00:01:25;;;;;;;17.00;10.50;;;11.80;99.90;;;;;;5088866;28;20044;-71
2023/01/06 00:03:57;;;;;;;13.38;9.65;;;11.80;99.90;;;;;;5102228;28;20131;-71
2023/01/06 00:06:26;;;;;;;13.60;9.90;;;11.80;99.90;;;;;;5079824;28;20040;-73
2023/01/06 00:08:55;;;;;;;15.15;9.77;;;11.80;99.90;;;;;;5102116;28;20449;-75
2023/01/06 00:11:24;;;;;;;18.45;10.88;;;11.80;99.90;;;;;;5104167;28;20044;-73
2023/01/06 00:13:53;;;;;;;17.33;10.43;;;11.80;99.90;;;;;;5091475;28;20489;-75
2023/01/06 00:16:21;;;;;;;16.98;11.27;;;11.80;99.90;;;;;;5072776;28;20436;-73
2023/01/06 00:18:54;;;;;;;20.83;11.27;;;11.80;99.90;;;;;;5089816;28;20428;-73
2023/01/06 00:21:22;;;;;;;18.92;11.38;;;11.70;99.90;;;;;;5098870;28;20044;-73
2023/01/06 00:23:50;;;;;;;13.63;10.02;;;11.70;99.90;;;;;;5094785;28;20442;-73
2023/01/06 00:26:17;;;;;;;16.33;10.25;;;11.70;99.90;;;;;;5088397;28;20397;-72
2023/01/06 00:28:46;;;;;;;16.27;10.73;;;11.70;99.90;;;;;;5084524;28;20036;-73
2023/01/06 00:31:15;;;;;;;15.23;10.10;;;11.70;99.90;;;;;;5086325;28;20049;-73
2023/01/06 00:33:43;;;;;;;13.70;9.60;;;11.70;99.90;;;;;;5099094;28;20040;-73
2023/01/06 00:36:12;;;;;;;17.50;10.52;;;11.70;99.90;;;;;;5087052;28;20131;-73
2023/01/06 00:38:41;;;;;;;17.42;9.68;;;11.70;99.90;;;;;;5080174;28;20039;-73
2023/01/06 00:43:58;;;;;;;15.43;9.40;;;11.70;99.90;;;;;;5087795;28;20062;-73
2023/01/06 00:46:27;;;;;;;13.20;9.13;;;11.70;99.90;;;;;;5100152;28;20040;-73
2023/01/06 00:48:57;;;;;;;18.70;10.63;;;11.70;99.90;;;;;;5096583;28;20046;-73
2023/01/06 00:51:38;;;;;;;14.63;9.75;;;11.70;99.90;;;;;;5090181;28;20082;-73
2023/01/06 00:54:07;;;;;;;18.23;10.45;;;11.60;99.90;;;;;;5097878;28;20393;-73
2023/01/06 00:56:46;;;;;;;14.07;9.25;;;11.60;99.90;;;;;;5094984;28;20134;-73
2023/01/06 00:59:16;;;;;;;14.93;9.25;;;11.70;99.90;;;;;;5088406;28;20066;-73
2023/01/06 01:01:44;;;;;;;15.35;9.98;;;11.70;99.90;;;;;;5099284;28;20040;-73
2023/01/06 01:04:13;;;;;;;16.52;10.35;;;11.70;99.90;;;;;;5089413;28;20055;-73
2023/01/06 01:06:42;;;;;;;12.52;8.82;;;11.70;99.90;;;;;;5063418;28;20042;-73
2023/01/06 01:09:17;;;;;;;12.63;9.50;;;11.60;99.90;;;;;;5073925;28;20489;-73
2023/01/06 01:14:32;;;;;;;;;;;11.60;99.90;;;;;;5069224;28;20425;-73
2023/01/06 01:16:59;;;;;;;16.60;10.38;;;11.60;99.90;;;;;;5089019;28;20008;-73
2023/01/06 01:19:29;;;;;;;19.92;9.43;;;11.70;99.90;;;;;;5092612;28;20044;-73
2023/01/06 01:21:57;;;;;;;15.00;8.70;;;11.70;99.90;;;;;;5094412;28;20062;-73
2023/01/06 01:24:24;;;;;;;14.23;8.82;;;11.70;99.90;;;;;;5092168;28;20074;-73
2023/01/06 01:26:52;;;;;;;12.73;8.73;;;11.70;99.90;;;;;;5087183;28;20044;-73
2023/01/06 01:29:19;;;;;;;15.10;9.35;;;11.70;99.90;;;;;;5083418;28;20043;-74
2023/01/06 01:31:49;;;;;;;12.15;8.50;;;11.70;99.90;;;;;;5090127;27;20052;-73
2023/01/06 01:34:17;;;;;;;17.92;9.32;;;11.70;99.90;;;;;;5095053;28;20044;-72
2023/01/06 01:36:47;;;;;;;14.85;8.75;;;11.60;99.90;;;;;;5090065;28;20150;-73
2023/01/06 01:39:17;;;;;;;19.55;10.30;;;11.60;99.90;;;;;;5071780;28;20409;-73
2023/01/06 01:41:45;;;;;;;12.27;8.32;;;11.60;99.90;;;;;;5101428;28;20120;-73
2023/01/06 01:44:52;;;;;;;12.75;8.95;;;11.60;99.90;;;;;;5099508;28;20068;-72
2023/01/06 01:48:03;;;;;;;13.30;9.48;;;11.60;99.90;;;;;;5084387;28;20047;-73
2023/01/06 01:50:36;;;;;;;16.35;9.70;;;11.60;99.90;;;;;;5089994;28;20055;-74
2023/01/06 01:53:20;;;;;;;14.27;9.82;;;11.60;99.90;;;;;;5090166;28;20116;-74
2023/01/06 01:55:49;;;;;;;16.70;9.57;;;11.50;99.90;;;;;;5091763;28;20040;-74
2023/01/06 01:58:27;;;;;;;13.57;8.77;;;11.60;99.90;;;;;;5090459;28;20108;-74
2023/01/06 02:00:54;;;;;;;11.85;7.13;;;11.60;99.90;;;;;;5037199;28;20052;-74
2023/01/06 02:03:24;;;;;;;12.43;8.30;;;11.60;99.90;;;;;;5053214;28;20139;-74
2023/01/06 02:05:56;;;;;;;14.07;9.05;;;11.60;99.90;;;;;;5053947;28;20471;-74
2023/01/06 02:08:41;;;;;;;11.85;7.47;;;11.50;99.90;;;;;;5089817;28;20477;-73
2023/01/06 02:11:09;;;;;;;14.10;9.95;;;11.60;99.90;;;;;;5078327;28;20051;-73
2023/01/06 02:13:39;;;;;;;18.30;8.10;;;11.60;99.90;;;;;;5091467;28;20043;-73
2023/01/06 02:16:32;;;;;;;12.98;8.30;;;11.50;99.90;;;;;;5089556;28;20044;-73
2023/01/06 02:19:06;;;;;;;13.05;9.50;;;11.50;99.90;;;;;;5074283;28;20055;-73
2023/01/06 02:21:41;;;;;;;13.77;9.07;;;11.60;99.90;;;;;;5089707;28;20044;-73
2023/01/06 02:24:29;;;;;;;11.23;8.73;;;11.60;99.90;;;;;;5070979;28;20048;-74
2023/01/06 02:27:24;;;;;;;11.77;7.63;;;11.60;99.90;;;;;;5075680;28;20476;-74
2023/01/06 02:30:10;;;;;;;13.65;8.48;;;11.60;99.90;;;;;;5072842;28;20048;-73
2023/01/06 02:32:56;;;;;;;12.27;8.30;;;11.60;99.90;;;;;;5072802;28;20101;-74
2023/01/06 02:35:53;;;;;;;13.00;8.03;;;11.60;99.90;;;;;;5090941;28;20044;-74
2023/01/06 02:38:30;;;;;;;12.57;9.27;;;11.50;99.90;;;;;;5089462;28;20051;-74
2023/01/06 02:41:30;;;;;;;11.30;7.53;;;11.50;99.90;;;;;;5068934;28;20338;-73
2023/01/06 02:44:26;;;;;;;15.25;7.93;;;11.50;99.90;;;;;;5053180;28;20145;-74
2023/01/06 02:47:30;;;;;;;14.00;7.75;;;11.50;99.90;;;;;;5075074;28;20122;-73
2023/01/06 02:50:10;;;;;;;13.90;7.95;;;11.50;99.90;;;;;;5089532;28;20044;-73
2023/01/06 02:52:54;;;;;;;12.18;7.53;;;11.40;99.90;;;;;;5070152;28;20051;-74
2023/01/06 02:55:26;;;;;;;12.18;7.00;;;11.40;99.90;;;;;;5069167;28;20423;-74
2023/01/06 02:58:07;;;;;;;8.27;6.32;;;11.40;99.90;;;;;;5083050;28;20401;-73
2023/01/06 03:00:44;;;;;;;10.52;6.22;;;11.40;99.90;;;;;;5054258;28;20162;-73
2023/01/06 03:03:21;;;;;;;10.98;8.20;;;11.40;99.90;;;;;;5084313;28;20057;-74
2023/01/06 03:05:55;;;;;;;15.30;8.77;;;11.40;99.90;;;;;;5069191;28;20048;-73
2023/01/06 03:08:29;;;;;;;11.48;6.60;;;11.40;99.90;;;;;;5086187;28;20036;-73
2023/01/06 03:10:59;;;;;;;11.55;7.00;;;11.30;99.90;;;;;;5089143;28;20062;-73
2023/01/06 03:13:57;;;;;;;10.60;7.55;;;11.40;99.90;;;;;;5072237;28;20052;-73
2023/01/06 03:16:25;;;;;;;15.40;7.68;;;11.40;99.90;;;;;;5088675;28;20440;-73
2023/01/06 03:18:54;;;;;;;11.13;7.28;;;11.40;99.90;;;;;;5055239;28;20087;-74
2023/01/06 03:21:29;;;;;;;11.45;5.88;;;11.40;99.90;;;;;;5088938;28;20067;-73
2023/01/06 03:23:57;;;;;;;14.43;8.77;;;11.40;99.90;;;;;;5089063;28;20487;-73
2023/01/06 03:26:25;;;;;;;15.93;8.30;;;11.30;99.90;;;;;;5089745;28;20052;-73
2023/01/06 03:28:53;;;;;;;12.30;8.35;;;11.30;99.90;;;;;;5088525;28;20436;-74
2023/01/06 03:31:43;;;;;;;8.90;6.65;;;11.30;99.90;;;;;;5088902;28;20093;-73
2023/01/06 03:34:42;;;;;;;10.93;7.40;;;11.30;99.90;;;;;;5088002;28;20048;-73
2023/01/06 03:37:32;;;;;;;10.15;6.85;;;11.20;99.90;;;;;;5087220;28;20032;-73
2023/01/06 03:40:28;;;;;;;11.10;7.32;;;11.20;99.90;;;;;;5087411;28;20099;-73
2023/01/06 03:43:11;;;;;;;10.23;6.18;;;11.20;99.90;;;;;;5088150;28;20076;-73
2023/01/06 03:46:14;;;;;;;10.55;6.95;;;11.20;99.90;;;;;;5071675;28;20044;-73
2023/01/06 03:48:54;;;;;;;9.93;6.53;;;11.10;99.90;;;;;;5070245;28;20402;-74
2023/01/06 03:51:31;;;;;;;12.63;7.55;;;11.10;99.90;;;;;;5088438;28;20121;-74
2023/01/06 03:54:21;;;;;;;11.15;7.63;;;11.20;99.90;;;;;;5054352;28;20147;-73
2023/01/06 03:57:12;;;;;;;12.20;7.75;;;11.10;99.90;;;;;;5089093;28;20060;-74
2023/01/06 03:59:53;;;;;;;9.43;6.97;;;11.10;99.90;;;;;;5089366;28;20050;-73
2023/01/06 04:02:21;;;;;;;13.73;6.57;;;11.00;99.90;;;;;;5087076;28;20516;-73
2023/01/06 04:05:13;;;;;;;9.07;6.43;;;10.80;99.90;;;;;;5088227;28;20398;-74
2023/01/06 04:07:43;;;;;;;8.07;5.65;;;10.50;99.90;;;;;;5087809;28;20175;-73
2023/01/06 04:10:13;;;;;;;7.60;5.03;;;10.40;99.90;;;;;;5087974;28;20115;-73
2023/01/06 04:12:42;;;;;;;8.30;5.70;;;10.20;99.90;;;;;;5087959;28;20127;-73
2023/01/06 04:15:19;;;;;;;8.50;5.60;;;10.20;99.90;;;;;;5069072;28;20055;-73
2023/01/06 04:17:48;;;;;;;15.48;6.72;;;10.00;99.90;;;;;;5087371;28;20032;-74
2023/01/06 04:20:25;;;;;;;9.50;6.43;;;10.00;99.90;;;;;;5087600;28;20051;-74
2023/01/06 04:22:58;;;;;;;14.32;7.07;;;9.90;99.90;;;;;;5072127;28;20040;-74
2023/01/06 04:25:30;;;;;;;13.02;7.80;;;9.80;99.90;;;;;;5089518;28;20118;-74
2023/01/06 04:28:05;;;;;;;17.95;8.02;;;9.80;99.90;;;;;;5087646;28;20047;-74
2023/01/06 04:30:33;;;;;;;14.40;7.85;;;9.80;99.90;;;;;;5089208;28;20079;-74
2023/01/06 04:33:02;;;;;;;11.20;7.28;;;9.70;99.90;;;;;;5070704;28;20135;-73
2023/01/06 04:35:29;;;;;;;11.43;8.10;;;9.70;99.90;;;;;;5071119;28;20052;-73
2023/01/06 04:38:01;;;;;;;12.55;8.23;;;9.60;99.90;;;;;;5087427;28;20051;-73
2023/01/06 04:40:29;;;;;;;10.38;7.40;;;9.60;99.90;;;;;;5089469;28;20089;-73
2023/01/06 04:43:05;;;;;;;13.38;9.45;;;9.60;99.90;;;;;;5088434;28;20040;-74
2023/01/06 04:45:34;;;;;;;13.85;7.32;;;9.50;99.90;;;;;;5088367;28;20047;-74
2023/01/06 04:48:01;;;;;;;10.82;7.53;;;9.50;99.90;;;;;;5070275;28;20116;-73
2023/01/06 04:50:29;;;;;;;10.13;7.63;;;9.50;99.90;;;;;;5087248;28;20519;-74
2023/01/06 04:52:56;;;;;;;11.35;9.45;;;9.40;99.90;;;;;;5086906;28;20040;-73
2023/01/06 04:55:24;;;;;;;14.23;9.52;;;9.40;99.90;;;;;;5087306;28;20123;-74
2023/01/06 04:57:51;;;;;;;15.85;9.75;;;9.40;99.90;;;;;;5070581;28;20390;-74
2023/01/06 05:00:19;;;;;;;14.40;10.70;;;9.30;99.90;;;;;;5088637;28;20055;-73
2023/01/06 05:02:47;;;;;;;15.98;10.18;;;9.40;99.90;;;;;;5088207;28;20048;-74
2023/01/06 05:05:15;;;;;;;17.05;12.07;;;9.40;99.90;;;;;;5090807;28;20591;-74
2023/01/06 05:07:42;;;;;;;16.73;10.82;;;9.40;99.90;;;;;;5092557;28;20046;-73
2023/01/06 05:10:10;;;;;;;14.60;10.98;;;9.50;99.90;;;;;;5092593;28;20490;-74
2023/01/06 05:12:38;;;;;;;15.20;10.77;;;9.50;99.90;;;;;;5078314;28;20048;-73
2023/01/06 05:15:07;;;;;;;18.98;11.57;;;9.50;99.90;;;;;;5071232;28;20086;-73
2023/01/06 05:17:34;;;;;;;17.55;12.63;;;9.60;99.90;;;;;;5062481;28;20485;-73
2023/01/06 05:20:02;;;;;;;21.55;13.00;;;9.70;99.90;;;;;;5090893;28;20055;-73
2023/01/06 05:22:30;;;;;;;19.27;11.90;;;9.70;99.90;;;;;;5092849;28;20032;-74
2023/01/06 05:24:59;;;;;;;19.20;13.05;;;9.80;99.90;;;;;;5057463;28;20102;-73
2023/01/06 05:27:27;;;;;;;18.45;11.93;;;9.90;99.90;;;;;;5090722;28;20489;-73
2023/01/06 05:29:54;;;;;;;18.98;12.57;;;9.90;99.90;;;;;;5090965;28;20612;-73
2023/01/06 05:32:22;;;;;;;21.27;13.73;;;9.90;99.90;;;;;;5091694;28;20130;-73
2023/01/06 05:34:49;;;;;;;23.15;13.88;;;9.90;99.90;;;;;;5090551;28;20046;-73
2023/01/06 05:37:17;;;;;;;24.15;13.98;;;9.90;99.90;;;;;;5090508;28;20044;-73
2023/01/06 05:39:44;;;;;;;29.60;13.40;;;9.90;99.90;;;;;;5090699;28;20127;-73
2023/01/06 05:42:11;;;;;;;17.58;12.95;;;9.90;99.90;;;;;;5056864;28;20056;-73
2023/01/06 05:44:39;;;;;;;20.58;13.90;;;9.90;99.90;;;;;;5090865;28;20477;-73
2023/01/06 05:47:06;;;;;;;21.08;13.27;;;9.80;99.90;;;;;;5091910;28;20553;-74
2023/01/06 05:49:34;;;;;;;24.75;13.60;;;9.90;99.90;;;;;;5092281;28;20044;-74
2023/01/06 05:52:01;;;;;;;23.45;13.32;;;9.90;99.90;;;;;;5090669;28;20532;-73
2023/01/06 05:54:29;;;;;;;18.67;13.73;;;9.90;99.90;;;;;;5090678;28;20162;-73
2023/01/06 05:56:56;;;;;;;25.48;13.60;;;9.90;99.90;;;;;;5073763;28;20048;-73
2023/01/06 05:59:24;;;;;;;18.75;13.32;;;10.00;99.90;;;;;;5092012;28;20173;-73
2023/01/06 06:01:52;;;;;;;24.15;14.55;;;10.10;99.90;;;;;;5090305;28;20051;-73
2023/01/06 06:04:19;;;;;;;21.63;14.40;;;10.10;99.90;;;;;;5073129;28;20065;-73
2023/01/06 06:06:46;;;;;;;24.25;16.15;;;10.10;99.90;;;;;;5090506;28;20045;-73
2023/01/06 06:09:14;;;;;;;21.10;15.07;;;10.10;99.90;;;;;;5091623;28;20184;-73
2023/01/06 06:11:41;;;;;;;26.10;16.17;;;10.20;99.90;;;;;;5091890;28;20125;-73
2023/01/06 06:14:09;;;;;;;21.77;15.43;;;10.20;99.90;;;;;;5089629;28;20032;-73
2023/01/06 06:16:37;;;;;;;23.05;14.10;;;10.20;99.90;;;;;;5070418;28;20048;-73
2023/01/06 06:19:04;;;;;;;23.85;15.98;;;10.20;99.90;;;;;;5090435;28;20064;-74
2023/01/06 06:21:32;;;;;;;22.77;15.25;;;10.30;99.90;;;;;;5089769;28;20513;-73
2023/01/06 06:23:59;;;;;;;20.85;14.82;;;10.30;99.90;;;;;;5090913;28;20365;-73
2023/01/06 06:26:27;;;;;;;25.67;14.52;;;10.30;99.90;;;;;;5089971;28;20120;-74
2023/01/06 06:28:55;;;;;;;21.05;14.43;;;10.40;99.90;;;;;;5089434;28;20123;-74
2023/01/06 06:31:28;;;;;;;24.88;14.00;;;10.60;99.90;;;;;;5089585;28;20149;-73
2023/01/06 06:33:58;;;;;;;22.20;14.55;;;10.90;99.90;;;;;;5091521;28;20079;-74
2023/01/06 06:36:26;;;;;;;21.50;14.93;;;11.30;99.90;;;;;;5091127;28;20044;-74
2023/01/06 06:38:54;;;;;;;24.08;14.43;;;11.70;99.90;;;;;;5089290;28;20048;-74
2023/01/06 06:41:24;;;;;;;21.00;14.60;;;12.10;99.90;;;;;;5089688;28;20063;-74
2023/01/06 06:43:52;;;;;;;23.38;15.30;;;12.50;99.90;;;;;;5089248;28;20122;-74
2023/01/06 06:46:20;;;;;;;21.10;14.38;;;12.90;99.90;;;;;;5088931;28;20144;-74
2023/01/06 06:48:51;;;;;;;20.67;14.80;;;13.20;99.90;;;;;;5089143;28;20052;-74
2023/01/06 06:51:20;;;;;;;22.88;14.35;;;13.60;99.90;;;;;;5089742;28;20040;-74
2023/01/06 06:53:49;;;;;;;24.80;16.50;;;13.90;99.90;;;;;;5089666;28;20416;-74
2023/01/06 06:56:18;;;;;;;29.67;16.38;;;14.30;99.90;;;;;;5090525;28;20604;-74
2023/01/06 06:58:45;;;;;;;24.35;14.73;;;14.70;99.90;;;;;;5090269;28;20044;-74
2023/01/06 07:01:16;;;;;;;25.60;14.43;;;15.10;99.90;;;;;;5089507;28;20051;-74
2023/01/06 07:03:44;;;;;;;23.83;12.77;;;15.40;99.90;;;;;;5090711;28;20048;-74
2023/01/06 07:06:15;;;;;;;24.17;14.77;;;16.00;99.90;;;;;;5090453;28;20056;-74
2023/01/06 07:08:46;;;;;;;18.33;12.98;;;16.50;99.90;;;;;;5090358;28;20089;-74
2023/01/06 07:11:14;;;;;;;20.38;13.75;;;17.00;99.90;;;;;;5089223;28;20101;-74
2023/01/06 07:13:42;;;;;;;18.38;12.18;;;17.40;99.90;;;;;;5090185;28;20097;-74
2023/01/06 07:16:10;;;;;;;21.67;13.18;;;17.80;99.90;;;;;;5088364;28;20063;-72
2023/01/06 07:18:38;;;;;;;24.98;14.05;;;18.10;99.90;;;;;;5085071;28;20113;-71
2023/01/06 07:21:06;;;;;;;23.77;15.13;;;18.20;99.90;;;;;;5089647;28;20172;-71
2023/01/06 07:23:34;;;;;;;17.60;12.00;;;18.30;99.90;;;;;;5089002;28;20133;-72
2023/01/06 07:26:02;;;;;;;27.27;14.55;;;18.50;99.90;;;;;;5072265;28;20094;-72
2023/01/06 07:28:31;;;;;;;19.80;13.43;;;18.90;99.90;;;;;;5087444;28;20106;-72
2023/01/06 07:30:59;;;;;;;16.42;12.75;;;19.40;99.90;;;;;;5088538;28;20052;-72
2023/01/06 07:33:28;;;;;;;21.80;12.32;;;20.00;99.90;;;;;;5088799;28;20132;-72
2023/01/06 07:35:56;;;;;;;20.60;13.07;;;20.40;99.90;;;;;;5072105;28;20043;-72
2023/01/06 07:38:24;;;;;;;19.77;13.18;;;20.80;99.90;;;;;;5071289;28;20177;-72
2023/01/06 07:40:57;;;;;;;21.30;13.93;;;21.20;99.90;;;;;;5088217;28;20122;-72
2023/01/06 07:43:25;;;;;;;20.02;13.48;;;21.40;99.90;;;;;;5089689;28;20051;-71
2023/01/06 07:45:52;;;;;;;22.38;15.02;;;21.60;99.90;;;;;;5071650;28;20058;-72
2023/01/06 07:48:20;;;;;;;17.85;13.02;;;21.60;99.90;;;;;;5089297;28;20039;-72
2023/01/06 07:50:48;;;;;;;19.98;14.13;;;21.70;99.90;;;;;;5087666;28;20046;-72
2023/01/06 07:53:16;;;;;;;21.58;14.07;;;21.60;99.90;;;;;;5087740;28;20060;-71
2023/01/06 07:55:51;;;;;;;18.45;11.75;;;21.50;99.90;;;;;;5088860;28;20051;-72
2023/01/06 07:58:19;;;;;;;21.63;12.63;;;21.20;99.90;;;;;;5089267;28;20455;-72
2023/01/06 08:00:47;;;;;;;18.33;12.38;;;20.90;99.90;;;;;;5070669;28;20469;-72
2023/01/06 08:03:15;;;;;;;17.20;11.35;;;20.70;99.90;;;;;;5087900;28;20052;-72
2023/01/06 08:05:42;;;;;;;19.83;12.60;;;20.40;99.90;;;;;;5088061;28;20401;-72
2023/01/06 08:08:10;;;;;;;19.58;12.50;;;20.20;99.90;;;;;;5087639;28;20076;-73
2023/01/06 08:10:40;;;;;;;18.20;12.20;;;19.90;99.90;;;;;;5087249;28;20075;-72
2023/01/06 08:13:08;;;;;;;17.70;12.40;;;19.80;99.90;;;;;;5087736;28;20047;-72
2023/01/06 08:15:38;;;;;;;20.00;12.23;;;19.70;99.90;;;;;;5075750;28;20055;-72
2023/01/06 08:18:07;;;;;;;20.65;13.25;;;19.70;99.90;;;;;;5081921;28;20082;-72
2023/01/06 08:20:34;;;;;;;20.90;13.07;;;19.60;99.90;;;;;;5075492;28;20156;-71
2023/01/06 08:23:02;;;;;;;18.33;11.85;;;19.60;99.90;;;;;;5078894;28;20036;-73
2023/01/06 08:25:30;;;;;;;18.95;12.52;;;19.40;99.90;;;;;;5079577;28;20055;-72
2023/01/06 08:27:58;;;;;;;20.83;13.63;;;19.10;99.90;;;;;;5085377;28;20036;-72
2023/01/06 08:30:26;;;;;;;23.95;12.63;;;18.70;99.90;;;;;;5088258;28;20048;-72
2023/01/06 08:32:58;;;;;;;19.95;14.23;;;18.50;99.90;;;;;;5070804;28;20131;-72
2023/01/06 08:35:26;;;;;;;21.77;14.15;;;18.40;99.90;;;;;;5066846;28;20052;-72
2023/01/06 08:37:54;;;;;;;19.50;13.55;;;18.40;99.90;;;;;;5079246;28;20044;-72
2023/01/06 08:40:22;;;;;;;22.60;15.50;;;18.50;99.90;;;;;;5078923;28;20059;-72
2023/01/06 08:42:49;;;;;;;21.48;13.68;;;18.50;99.90;;;;;;5081613;28;20136;-73
2023/01/06 08:45:17;;;;;;;20.27;14.13;;;18.50;99.90;;;;;;5075868;28;20132;-75
2023/01/06 08:47:45;;;;;;;25.25;15.07;;;18.40;99.90;;;;;;5092155;28;20119;-74
2023/01/06 08:50:13;;;;;;;21.02;14.00;;;18.40;99.90;;;;;;5083735;28;20810;-74
2023/01/06 08:52:40;;;;;;;23.50;14.40;;;18.50;99.90;;;;;;5080397;28;20041;-73
2023/01/06 08:55:08;;;;;;;18.67;14.80;;;18.60;99.90;;;;;;5075291;28;20739;-73
2023/01/06 08:57:35;;;;;;;23.45;16.02;;;18.60;99.90;;;;;;5076139;28;20085;-73
2023/01/06 09:00:05;;;;;;;20.67;14.30;;;18.40;99.90;;;;;;5075887;28;20037;-73
2023/01/06 09:02:32;;;;;;;24.23;15.10;;;18.30;99.90;;;;;;5075170;28;20059;-73
2023/01/06 09:05:00;;;;;;;23.15;14.43;;;18.10;99.90;;;;;;5073333;28;20138;-73
2023/01/06 09:07:28;;;;;;;20.55;14.77;;;17.80;99.90;;;;;;5086990;28;20144;-73
2023/01/06 09:09:55;;;;;;;21.20;14.18;;;17.50;99.90;;;;;;5074582;28;20036;-72
2023/01/06 09:12:23;;;;;;;22.23;13.27;;;17.20;99.90;;;;;;5061384;28;20860;-73
2023/01/06 09:14:51;;;;;;;18.48;12.68;;;16.90;99.90;;;;;;5068414;28;20478;-73
2023/01/06 09:17:18;;;;;;;19.92;13.32;;;16.70;99.90;;;;;;5072942;28;20139;-74
2023/01/06 09:19:46;;;;;;;20.23;11.98;;;16.50;99.90;;;;;;5062100;28;20055;-73
2023/01/06 09:22:14;;;;;;;22.90;12.75;;;16.40;99.90;;;;;;5077730;28;20052;-74
2023/01/06 09:24:41;;;;;;;18.95;12.48;;;16.30;99.90;;;;;;5076458;28;20146;-75
2023/01/06 09:27:09;;;;;;;15.88;12.43;;;16.20;99.90;;;;;;5068209;28;20394;-75
2023/01/06 09:29:36;;;;;;;19.58;12.85;;;16.20;99.90;;;;;;5078261;28;20064;-75
2023/01/06 09:32:04;;;;;;;25.25;14.73;;;16.20;99.90;;;;;;5067854;28;20075;-76
2023/01/06 09:34:32;;;;;;;23.15;15.48;;;16.40;99.90;;;;;;5081243;28;20512;-75
2023/01/06 09:37:00;;;;;;;22.30;13.23;;;16.60;99.90;;;;;;5062820;28;20471;-75
2023/01/06 09:39:27;;;;;;;19.83;12.77;;;16.60;99.90;;;;;;5076598;28;20041;-72
2023/01/06 09:42:10;;;;;;;25.33;16.50;;;16.60;99.90;;;;;;5076404;28;20036;-75
2023/01/06 09:44:45;;;;;;;24.30;15.50;;;16.50;99.90;;;;;;5086632;28;20044;-76
2023/01/06 09:47:17;;;;;;;21.73;13.80;;;16.30;99.90;;;;;;5087247;28;20044;-73
2023/01/06 09:49:56;;;;;;;19.67;12.80;;;16.20;99.90;;;;;;5080819;28;20052;-74
2023/01/06 09:52:34;;;;;;;20.77;14.20;;;16.10;99.90;;;;;;5084358;28;20040;-74
2023/01/06 09:55:18;;;;;;;24.67;14.57;;;16.10;99.90;;;;;;5090778;28;20819;-73
2023/01/06 09:58:14;;;;;;;20.80;13.93;;;16.00;99.90;;;;;;5077876;28;20048;-73
2023/01/06 10:00:48;;;;;;;18.55;12.18;;;16.10;99.90;;;;;;5072369;28;20060;-74
2023/01/06 10:03:25;;;;;;;19.40;12.68;;;16.20;99.90;;;;;;5072220;28;20048;-74
2023/01/06 10:06:08;;;;;;;17.85;12.07;;;16.40;99.90;;;;;;5072921;28;20048;-74
2023/01/06 10:08:53;;;;;;;18.05;11.60;;;16.80;99.90;;;;;;5079568;28;20515;-73
2023/01/06 10:11:33;;;;;;;23.40;11.88;;;17.20;99.90;;;;;;5091677;28;20048;-74
2023/01/06 10:14:54;;;;;;;13.98;9.73;;;17.60;99.90;;;;;;5081714;28;20047;-71
2023/01/06 10:17:31;;;;;;;12.70;9.60;;;18.10;99.90;;;;;;5004432;28;20121;-72
2023/01/06 10:20:16;;;;;;;17.83;10.05;;;18.50;99.90;;;;;;4999147;28;20045;-71
2023/01/06 10:22:53;;;;;;;23.58;9.73;;;18.50;99.90;;;;;;5048676;28;20052;-74
2023/01/06 10:25:31;;;;;;;14.15;8.80;;;18.40;99.90;;;;;;5080215;28;20040;-74
2023/01/06 10:28:11;;;;;;;13.85;8.68;;;18.20;99.90;;;;;;5086299;28;20075;-74
2023/01/06 10:30:49;;;;;;;13.65;8.88;;;17.80;99.90;;;;;;5091047;28;20075;-73
2023/01/06 10:33:32;;;;;;;13.73;8.18;;;17.40;99.90;;;;;;5082575;28;20106;-74
2023/01/06 10:36:00;;;;;;;11.73;8.38;;;17.00;99.90;;;;;;5055567;28;20098;-73
2023/01/06 10:38:33;;;;;;;16.60;8.85;;;16.70;99.90;;;;;;5083835;28;20035;-74
2023/01/06 10:41:38;;;;;;;13.77;8.73;;;16.50;99.90;;;;;;5072920;28;20043;-73
2023/01/06 10:44:09;;;;;;;11.80;7.85;;;16.50;99.90;;;;;;5076925;28;20080;-74
2023/01/06 10:46:37;;;;;;;12.52;8.20;;;16.30;99.90;;;;;;5089550;28;20078;-74
2023/01/06 10:49:14;;;;;;;12.02;7.65;;;16.30;99.90;;;;;;5089053;28;20039;-74
2023/01/06 10:51:47;;;;;;;17.92;9.20;;;16.30;99.90;;;;;;5084641;28;20127;-74
2023/01/06 10:54:21;;;;;;;14.15;8.35;;;16.50;99.90;;;;;;5080884;28;20139;-73
2023/01/06 10:57:01;;;;;;;9.50;6.78;;;16.40;99.90;;;;;;5090033;28;20094;-74
2023/01/06 10:59:29;;;;;;;12.15;6.75;;;16.50;99.90;;;;;;5086284;28;20047;-74
2023/01/06 11:01:57;;;;;;;14.50;8.27;;;16.70;99.90;;;;;;5067607;28;20032;-74
2023/01/06 11:04:27;;;;;;;10.48;6.00;;;16.70;99.90;;;;;;5078858;28;20052;-74
2023/01/06 11:06:58;;;;;;;14.60;7.20;;;16.80;99.90;;;;;;5068931;28;20048;-74
2023/01/06 11:09:39;;;;;;;9.00;6.35;;;16.80;99.90;;;;;;5086425;28;20120;-73
2023/01/06 11:12:19;;;;;;;7.38;5.65;;;16.80;99.90;;;;;;5077897;28;20044;-74
2023/01/06 11:15:06;;;;;;;7.72;4.75;;;16.90;99.90;;;;;;5051874;28;20052;-73
2023/01/06 11:17:35;;;;;;;8.43;6.05;;;16.90;99.90;;;;;;5079696;28;20361;-72
2023/01/06 11:20:30;;;;;;;7.13;4.95;;;17.00;99.90;;;;;;5081936;28;20473;-73
2023/01/06 11:23:33;;;;;;;12.50;5.90;;;17.10;99.90;;;;;;5084897;28;20048;-72
2023/01/06 11:26:04;;;;;;;8.10;5.18;;;17.20;99.90;;;;;;5006592;28;20485;-74
2023/01/06 11:28:32;;;;;;;6.43;5.30;;;17.10;99.90;;;;;;5076233;28;20052;-73
2023/01/06 11:31:06;;;;;;;7.15;4.47;;;16.80;99.90;;;;;;5088431;28;20052;-73
2023/01/06 11:33:37;;;;;;;5.95;4.22;;;16.60;99.90;;;;;;5087873;28;20043;-74
2023/01/06 11:36:10;;;;;;;6.30;4.35;;;16.70;99.90;;;;;;5087745;28;20052;-74
2023/01/06 11:38:45;;;;;;;5.68;3.65;;;17.00;99.90;;;;;;5088694;28;20078;-73
2023/01/06 11:41:22;;;;;;;8.52;4.47;;;17.30;99.90;;;;;;5089873;28;20151;-73
2023/01/06 11:43:50;;;;;;;6.50;4.47;;;17.20;99.90;;;;;;5071756;28;20475;-73
2023/01/06 11:46:22;;;;;;;6.40;3.55;;;17.20;99.90;;;;;;5088345;28;20074;-73
2023/01/06 11:48:59;;;;;;;8.98;5.07;;;17.40;99.90;;;;;;5089773;28;20043;-74
2023/01/06 11:51:52;;;;;;;9.25;4.15;;;17.40;99.90;;;;;;5088000;28;20055;-73
2023/01/06 11:54:38;;;;;;;5.00;3.70;;;17.60;99.90;;;;;;5070667;28;20531;-74
2023/01/06 11:57:15;;;;;;;6.60;3.97;;;17.80;99.90;;;;;;5071237;28;20187;-74
2023/01/06 12:00:03;;;;;;;7.80;3.78;;;17.80;99.90;;;;;;5089314;28;20085;-72
2023/01/06 12:03:03;;;;;;;6.75;4.13;;;18.00;99.90;;;;;;5080937;28;20057;-72
2023/01/06 12:05:37;;;;;;;5.97;4.20;;;18.00;99.90;;;;;;5079137;28;20052;-72
2023/01/06 12:08:16;;;;;;;7.22;4.80;;;18.10;99.90;;;;;;5086454;28;20040;-72
2023/01/06 12:10:50;;;;;;;7.07;4.10;;;18.10;99.90;;;;;;5053905;28;20070;-73
2023/01/06 12:13:18;;;;;;;6.40;4.90;;;18.00;99.90;;;;;;5066867;28;20126;-73
2023/01/06 12:15:55;;;;;;;6.00;3.70;;;17.90;99.90;;;;;;5066681;28;20473;-72
2023/01/06 12:18:29;;;;;;;9.00;3.90;;;17.90;99.90;;;;;;5087414;28;20138;-72
2023/01/06 12:20:59;;;;;;;9.30;3.67;;;17.90;99.90;;;;;;5087455;28;20039;-73
2023/01/06 12:23:32;;;;;;;6.38;3.95;;;18.00;99.90;;;;;;5085925;28;20674;-73
2023/01/06 12:26:11;;;;;;;6.63;3.97;;;17.90;99.90;;;;;;5085841;28;20084;-73
2023/01/06 12:28:43;;;;;;;5.30;3.72;;;18.00;99.90;;;;;;5087136;28;20036;-74
2023/01/06 12:31:26;;;;;;;5.40;3.97;;;17.90;99.90;;;;;;5086209;28;20146;-73
2023/01/06 12:34:02;;;;;;;7.65;3.25;;;17.80;99.90;;;;;;5088408;28;20093;-73
2023/01/06 12:36:48;;;;;;;6.38;3.88;;;17.80;99.90;;;;;;5087831;28;20044;-73
2023/01/06 12:39:42;;;;;;;7.55;3.90;;;17.80;99.90;;;;;;5087495;28;20440;-73
2023/01/06 12:42:25;;;;;;;5.63;3.58;;;17.80;99.90;;;;;;5078905;28;20044;-73
2023/01/06 12:45:14;;;;;;;7.03;3.40;;;17.60;99.90;;;;;;5088795;28;20105;-73
2023/01/06 12:47:49;;;;;;;4.55;3.33;;;17.60;99.90;;;;;;5088744;28;20055;-73
2023/01/06 12:50:24;;;;;;;7.47;3.90;;;17.60;99.90;;;;;;5088534;28;20055;-73
2023/01/06 12:53:21;;;;;;;5.65;3.78;;;17.70;99.90;;;;;;5088009;28;20036;-73
2023/01/06 12:55:51;;;;;;;8.93;3.80;;;17.60;99.90;;;;;;5087547;28;20134;-73
2023/01/06 12:58:24;;;;;;;5.22;3.28;;;17.50;99.90;;;;;;5085930;28;20289;-73
2023/01/06 13:01:00;;;;;;;6.93;3.40;;;17.50;99.90;;;;;;5086899;28;20076;-73
2023/01/06 13:04:04;;;;;;;5.75;3.90;;;17.50;99.90;;;;;;5087311;28;20636;-73
2023/01/06 13:06:47;;;;;;;7.50;3.97;;;17.40;99.90;;;;;;5089000;28;20052;-73
2023/01/06 13:09:28;;;;;;;5.13;3.60;;;17.40;99.90;;;;;;5070630;28;20514;-73
2023/01/06 13:12:23;;;;;;;4.55;3.28;;;17.40;99.90;;;;;;5088427;28;20055;-73
2023/01/06 13:15:15;;;;;;;7.78;4.35;;;17.20;99.90;;;;;;5087600;28;20067;-73